createdAt,value
2019-04-14T00:01:02.227Z,5.87
2019-04-14T00:03:39.016Z,5.81
2019-04-14T00:06:11.274Z,5.82
2019-04-14T00:08:43.743Z,5.85
2019-04-14T00:11:16.909Z,5.85
2019-04-14T00:13:48.562Z,5.88
2019-04-14T00:16:20.638Z,5.80
2019-04-14T00:18:51.761Z,5.80
2019-04-14T00:21:23.650Z,5.69
2019-04-14T00:23:55.198Z,5.75
2019-04-14T00:26:31.979Z,5.61
2019-04-14T00:29:04.487Z,5.67
2019-04-14T00:31:37.122Z,5.67
2019-04-14T00:34:22.673Z,5.68
2019-04-14T00:37:12.206Z,5.82
2019-04-14T00:39:48.954Z,5.61
2019-04-14T00:42:28.229Z,5.61
2019-04-14T00:45:02.738Z,5.66
2019-04-14T00:47:50.868Z,5.68
2019-04-14T00:50:10.286Z,5.60
2019-04-14T00:52:41.595Z,5.53
2019-04-14T00:55:13.994Z,5.61
2019-04-14T00:57:46.302Z,5.68
2019-04-14T01:00:19.233Z,5.54
2019-04-14T01:02:51.568Z,5.60
2019-04-14T01:05:24.104Z,5.61
2019-04-14T01:07:56.533Z,5.60
2019-04-14T01:10:28.178Z,5.60
2019-04-14T01:13:00.532Z,5.42
2019-04-14T01:15:44.850Z,5.49
2019-04-14T01:18:05.757Z,5.44
2019-04-14T01:20:38.435Z,5.46
2019-04-14T01:23:10.648Z,5.34
2019-04-14T01:25:43.256Z,5.53
2019-04-14T01:28:15.741Z,5.43
2019-04-14T01:30:48.025Z,5.42
2019-04-14T01:33:20.503Z,5.36
2019-04-14T01:35:53.127Z,5.38
2019-04-14T01:38:25.535Z,5.32
2019-04-14T01:40:57.763Z,5.39
2019-04-14T01:43:29.985Z,5.25
2019-04-14T01:46:10.533Z,5.39
2019-04-14T01:48:34.662Z,5.34
2019-04-14T01:51:22.691Z,5.24
2019-04-14T01:54:13.291Z,5.20
2019-04-14T01:57:00.285Z,5.21
2019-04-14T01:59:32.642Z,5.28
2019-04-14T02:02:05.054Z,5.24
2019-04-14T02:04:37.527Z,5.10
2019-04-14T02:07:08.399Z,5.19
2019-04-14T02:09:40.140Z,5.24
2019-04-14T02:12:12.686Z,5.18
2019-04-14T02:14:45.150Z,5.34
2019-04-14T02:17:17.754Z,5.10
2019-04-14T02:19:50.214Z,5.17
2019-04-14T02:22:22.394Z,4.99
2019-04-14T02:24:54.914Z,5.02
2019-04-14T02:27:27.406Z,5.18
2019-04-14T02:30:00.191Z,5.08
2019-04-14T02:33:11.117Z,5.20
2019-04-14T02:35:40.726Z,5.12
2019-04-14T02:38:13.797Z,5.03
2019-04-14T02:40:43.805Z,4.93
2019-04-14T02:43:16.498Z,4.92
2019-04-14T02:50:47.716Z,4.96
2019-04-14T02:53:23.987Z,5.04
2019-04-14T02:56:11.968Z,4.90
2019-04-14T02:58:40.288Z,4.80
2019-04-14T03:01:21.281Z,4.75
2019-04-14T03:06:10.416Z,4.86
2019-04-14T03:08:51.995Z,4.81
2019-04-14T03:11:20.664Z,4.75
2019-04-14T03:16:49.074Z,4.77
2019-04-14T03:19:00.042Z,4.88
2019-04-14T03:21:45.182Z,4.81
2019-04-14T03:24:26.960Z,4.78
2019-04-14T03:29:51.971Z,4.59
2019-04-14T03:32:39.043Z,4.67
2019-04-14T03:35:30.495Z,4.65
2019-04-14T03:37:45.299Z,4.58
2019-04-14T03:39:51.188Z,4.55
2019-04-14T03:42:35.557Z,4.63
2019-04-14T03:45:11.172Z,4.61
2019-04-14T03:47:34.835Z,4.64
2019-04-14T03:50:12.108Z,4.57
2019-04-14T03:53:15.834Z,4.55
2019-04-14T03:55:05.755Z,4.65
2019-04-14T03:57:21.504Z,4.54
2019-04-14T03:59:54.172Z,4.47
2019-04-14T04:02:25.599Z,4.33
2019-04-14T04:04:57.729Z,4.34
2019-04-14T04:07:28.377Z,4.50
2019-04-14T04:10:05.009Z,4.46
2019-04-14T04:12:37.791Z,4.46
2019-04-14T04:15:10.396Z,4.59
2019-04-14T04:17:49.511Z,4.63
2019-04-14T04:20:26.367Z,4.59
2019-04-14T04:23:00.849Z,4.38
2019-04-14T04:25:37.868Z,4.46
2019-04-14T04:28:27.866Z,4.41
2019-04-14T04:31:11.001Z,4.54
2019-04-14T04:33:44.222Z,4.42
2019-04-14T04:36:36.343Z,4.57
2019-04-14T04:39:14.893Z,4.59
2019-04-14T04:41:47.272Z,4.68
2019-04-14T04:44:18.615Z,4.63
2019-04-14T04:46:50.482Z,4.75
2019-04-14T04:49:26.042Z,4.66
2019-04-14T04:51:57.186Z,4.67
2019-04-14T04:54:30.106Z,4.54
2019-04-14T04:57:02.481Z,4.56
2019-04-14T04:59:34.341Z,4.55
2019-04-14T05:02:07.215Z,4.36
2019-04-14T05:04:39.438Z,4.30
2019-04-14T05:07:12.173Z,4.25
2019-04-14T05:10:02.657Z,4.19
2019-04-14T05:12:39.219Z,4.25
2019-04-14T05:15:29.110Z,4.23
2019-04-14T05:18:00.548Z,4.13
2019-04-14T05:20:31.994Z,4.29
2019-04-14T05:23:03.746Z,4.45
2019-04-14T05:25:36.473Z,4.46
2019-04-14T05:28:09.112Z,4.39
2019-04-14T05:30:42.025Z,4.49
2019-04-14T05:33:14.125Z,4.63
2019-04-14T05:35:46.453Z,4.50
2019-04-14T05:38:19.066Z,4.43
2019-04-14T05:40:52.246Z,4.45
2019-04-14T05:43:36.982Z,4.57
2019-04-14T05:45:56.688Z,4.52
2019-04-14T05:48:29.271Z,4.47
2019-04-14T05:51:02.075Z,4.39
2019-04-14T05:53:33.445Z,4.50
2019-04-14T05:56:05.770Z,4.32
2019-04-14T05:58:38.205Z,4.45
2019-04-14T06:01:11.333Z,4.38
2019-04-14T06:03:43.275Z,4.45
2019-04-14T06:06:16.459Z,4.36
2019-04-14T06:08:49.841Z,4.16
2019-04-14T06:11:22.535Z,4.23
2019-04-14T06:13:59.796Z,4.22
2019-04-14T06:16:31.398Z,4.14
2019-04-14T06:19:02.529Z,4.17
2019-04-14T06:24:18.199Z,4.33
2019-04-14T06:26:51.032Z,4.22
2019-04-14T06:29:24.244Z,4.41
2019-04-14T06:31:57.226Z,4.33
2019-04-14T06:34:36.456Z,4.18
2019-04-14T06:37:26.035Z,4.22
2019-04-14T06:40:01.334Z,4.19
2019-04-14T06:42:33.039Z,4.20
2019-04-14T06:45:04.558Z,4.23
2019-04-14T06:47:36.000Z,4.38
2019-04-14T06:50:07.959Z,4.49
2019-04-14T06:52:39.766Z,4.28
2019-04-14T06:55:10.756Z,4.33
2019-04-14T06:57:42.018Z,4.40
2019-04-14T07:00:13.308Z,4.36
2019-04-14T07:02:45.515Z,4.41
2019-04-14T07:05:17.783Z,4.34
2019-04-14T07:07:57.044Z,4.41
2019-04-14T07:10:21.377Z,4.32
2019-04-14T07:12:53.385Z,4.45
2019-04-14T07:15:25.077Z,4.55
2019-04-14T07:17:56.476Z,4.46
2019-04-14T07:20:28.038Z,4.60
2019-04-14T07:22:59.348Z,4.58
2019-04-14T07:25:31.033Z,4.49
2019-04-14T07:28:02.531Z,4.52
2019-04-14T07:30:33.651Z,4.54
2019-04-14T07:33:12.440Z,4.60
2019-04-14T07:36:01.773Z,4.50
2019-04-14T07:38:50.319Z,4.62
2019-04-14T07:41:38.804Z,4.84
2019-04-14T07:44:23.418Z,4.83
2019-04-14T07:46:54.309Z,4.99
2019-04-14T07:49:42.799Z,4.94
2019-04-14T07:52:25.313Z,5.02
2019-04-14T07:55:07.946Z,5.01
2019-04-14T07:57:54.108Z,4.98
2019-04-14T08:00:33.296Z,4.93
2019-04-14T08:03:07.224Z,4.91
2019-04-14T08:05:40.224Z,5.02
2019-04-14T08:08:12.286Z,4.97
2019-04-14T08:10:43.591Z,5.02
2019-04-14T08:13:15.025Z,4.92
2019-04-14T08:15:46.497Z,4.95
2019-04-14T08:18:18.009Z,5.06
2019-04-14T08:20:49.315Z,5.07
2019-04-14T08:23:21.368Z,5.12
2019-04-14T08:25:52.860Z,5.30
2019-04-14T08:28:25.277Z,5.28
2019-04-14T08:30:56.863Z,5.20
2019-04-14T08:33:28.256Z,5.31
2019-04-14T08:36:00.225Z,5.27
2019-04-14T08:38:34.547Z,5.28
2019-04-14T08:41:05.070Z,5.37
2019-04-14T08:43:57.238Z,5.54
2019-04-14T08:46:47.292Z,5.51
2019-04-14T08:49:26.407Z,5.37
2019-04-14T08:51:59.763Z,5.45
2019-04-14T08:54:34.758Z,5.44
2019-04-14T08:57:24.655Z,5.49
2019-04-14T08:59:57.576Z,5.57
2019-04-14T09:02:33.936Z,5.58
2019-04-14T09:05:08.249Z,5.61
2019-04-14T09:07:58.032Z,5.78
2019-04-14T09:10:32.216Z,5.86
2019-04-14T09:13:04.489Z,5.94
2019-04-14T09:15:36.006Z,6.01
2019-04-14T09:18:07.322Z,5.83
